sensor_id;sensor_type;location;lat;lon;timestamp;P1;durP1;ratioP1;P2;durP2;ratioP2
5465;SDS011;2755;50.728;7.108;2023-11-22T00:00:45;124.80;;;45.40;;
5465;SDS011;2755;50.728;7.108;2023-11-22T00:03:11;125.17;;;45.47;;
5465;SDS011;2755;50.728;7.108;2023-11-22T00:05:37;126.03;;;47.30;;
5465;SDS011;2755;50.728;7.108;2023-11-22T00:08:03;125.57;;;46.00;;
5465;SDS011;2755;50.728;7.108;2023-11-22T00:10:29;126.77;;;47.50;;
5465;SDS011;2755;50.728;7.108;2023-11-22T00:12:55;126.90;;;48.90;;
5465;SDS011;2755;50.728;7.108;2023-11-22T00:15:21;128.83;;;51.17;;
5465;SDS011;2755;50.728;7.108;2023-11-22T00:17:47;128.90;;;52.27;;
5465;SDS011;2755;50.728;7.108;2023-11-22T00:20:13;132.40;;;53.53;;
5465;SDS011;2755;50.728;7.108;2023-11-22T00:22:39;127.40;;;49.77;;
5465;SDS011;2755;50.728;7.108;2023-11-22T00:25:05;130.60;;;54.83;;
5465;SDS011;2755;50.728;7.108;2023-11-22T00:27:31;129.63;;;53.37;;
5465;SDS011;2755;50.728;7.108;2023-11-22T00:29:58;128.13;;;50.67;;
5465;SDS011;2755;50.728;7.108;2023-11-22T00:32:24;127.97;;;50.73;;
5465;SDS011;2755;50.728;7.108;2023-11-22T00:34:50;127.27;;;49.73;;
5465;SDS011;2755;50.728;7.108;2023-11-22T00:37:16;128.40;;;51.37;;
5465;SDS011;2755;50.728;7.108;2023-11-22T00:39:42;129.00;;;51.07;;
5465;SDS011;2755;50.728;7.108;2023-11-22T00:42:08;128.30;;;51.03;;
5465;SDS011;2755;50.728;7.108;2023-11-22T00:44:34;127.80;;;50.00;;
5465;SDS011;2755;50.728;7.108;2023-11-22T00:47:01;129.20;;;51.90;;
5465;SDS011;2755;50.728;7.108;2023-11-22T00:49:27;128.17;;;50.50;;
5465;SDS011;2755;50.728;7.108;2023-11-22T00:51:53;124.87;;;45.70;;
5465;SDS011;2755;50.728;7.108;2023-11-22T00:54:19;127.67;;;49.67;;
5465;SDS011;2755;50.728;7.108;2023-11-22T00:56:45;129.07;;;52.37;;
5465;SDS011;2755;50.728;7.108;2023-11-22T00:59:11;127.60;;;49.10;;
5465;SDS011;2755;50.728;7.108;2023-11-22T01:01:38;128.10;;;49.17;;
5465;SDS011;2755;50.728;7.108;2023-11-22T01:04:04;126.77;;;48.03;;
5465;SDS011;2755;50.728;7.108;2023-11-22T01:06:32;130.43;;;55.07;;
5465;SDS011;2755;50.728;7.108;2023-11-22T01:08:58;129.00;;;50.13;;
5465;SDS011;2755;50.728;7.108;2023-11-22T01:11:24;128.57;;;50.87;;
5465;SDS011;2755;50.728;7.108;2023-11-22T01:13:50;125.17;;;45.60;;
5465;SDS011;2755;50.728;7.108;2023-11-22T01:16:16;129.37;;;52.83;;
5465;SDS011;2755;50.728;7.108;2023-11-22T01:18:42;128.10;;;50.37;;
5465;SDS011;2755;50.728;7.108;2023-11-22T01:21:11;129.27;;;50.10;;
5465;SDS011;2755;50.728;7.108;2023-11-22T01:23:36;128.40;;;50.00;;
5465;SDS011;2755;50.728;7.108;2023-11-22T01:26:02;129.57;;;52.47;;
5465;SDS011;2755;50.728;7.108;2023-11-22T01:28:29;125.57;;;46.47;;
5465;SDS011;2755;50.728;7.108;2023-11-22T01:30:59;128.60;;;52.30;;
5465;SDS011;2755;50.728;7.108;2023-11-22T01:33:25;129.87;;;53.50;;
5465;SDS011;2755;50.728;7.108;2023-11-22T01:35:52;127.60;;;49.33;;
5465;SDS011;2755;50.728;7.108;2023-11-22T01:38:18;131.03;;;54.90;;
5465;SDS011;2755;50.728;7.108;2023-11-22T01:40:44;129.50;;;52.63;;
5465;SDS011;2755;50.728;7.108;2023-11-22T01:43:14;130.83;;;54.90;;
5465;SDS011;2755;50.728;7.108;2023-11-22T01:45:42;127.60;;;49.47;;
5465;SDS011;2755;50.728;7.108;2023-11-22T01:48:09;127.57;;;48.50;;
5465;SDS011;2755;50.728;7.108;2023-11-22T01:50:36;128.90;;;50.90;;
5465;SDS011;2755;50.728;7.108;2023-11-22T01:53:06;128.67;;;50.47;;
5465;SDS011;2755;50.728;7.108;2023-11-22T01:55:33;128.47;;;49.33;;
5465;SDS011;2755;50.728;7.108;2023-11-22T01:58:00;128.57;;;50.53;;
5465;SDS011;2755;50.728;7.108;2023-11-22T02:00:27;129.00;;;51.30;;
5465;SDS011;2755;50.728;7.108;2023-11-22T02:03:00;130.60;;;52.67;;
5465;SDS011;2755;50.728;7.108;2023-11-22T02:05:26;127.10;;;48.40;;
5465;SDS011;2755;50.728;7.108;2023-11-22T02:07:52;128.93;;;51.20;;
5465;SDS011;2755;50.728;7.108;2023-11-22T02:10:18;127.47;;;48.77;;
5465;SDS011;2755;50.728;7.108;2023-11-22T02:12:44;125.93;;;47.20;;
5465;SDS011;2755;50.728;7.108;2023-11-22T02:15:09;128.07;;;50.30;;
5465;SDS011;2755;50.728;7.108;2023-11-22T02:17:36;128.17;;;51.43;;
5465;SDS011;2755;50.728;7.108;2023-11-22T02:20:02;128.40;;;51.40;;
5465;SDS011;2755;50.728;7.108;2023-11-22T02:22:34;128.07;;;50.70;;
5465;SDS011;2755;50.728;7.108;2023-11-22T02:25:00;131.00;;;55.03;;
5465;SDS011;2755;50.728;7.108;2023-11-22T02:27:26;129.67;;;52.23;;
5465;SDS011;2755;50.728;7.108;2023-11-22T02:29:52;127.87;;;50.57;;
5465;SDS011;2755;50.728;7.108;2023-11-22T02:32:19;125.93;;;47.33;;
5465;SDS011;2755;50.728;7.108;2023-11-22T02:34:45;126.07;;;46.80;;
5465;SDS011;2755;50.728;7.108;2023-11-22T02:37:11;127.13;;;48.90;;
5465;SDS011;2755;50.728;7.108;2023-11-22T02:39:42;125.43;;;46.23;;
5465;SDS011;2755;50.728;7.108;2023-11-22T02:42:22;128.20;;;50.60;;
5465;SDS011;2755;50.728;7.108;2023-11-22T02:44:48;127.63;;;49.93;;
5465;SDS011;2755;50.728;7.108;2023-11-22T02:47:14;129.17;;;50.83;;
5465;SDS011;2755;50.728;7.108;2023-11-22T02:49:40;130.37;;;53.83;;
5465;SDS011;2755;50.728;7.108;2023-11-22T02:52:06;127.93;;;50.37;;
5465;SDS011;2755;50.728;7.108;2023-11-22T02:54:32;127.70;;;49.50;;
5465;SDS011;2755;50.728;7.108;2023-11-22T02:56:59;126.97;;;48.97;;
5465;SDS011;2755;50.728;7.108;2023-11-22T02:59:25;127.07;;;49.37;;
5465;SDS011;2755;50.728;7.108;2023-11-22T03:01:51;127.00;;;48.40;;
5465;SDS011;2755;50.728;7.108;2023-11-22T03:04:17;129.77;;;53.07;;
5465;SDS011;2755;50.728;7.108;2023-11-22T03:06:43;125.80;;;47.40;;
5465;SDS011;2755;50.728;7.108;2023-11-22T03:09:08;127.87;;;50.33;;
5465;SDS011;2755;50.728;7.108;2023-11-22T03:11:34;130.30;;;52.97;;
5465;SDS011;2755;50.728;7.108;2023-11-22T03:14:01;128.73;;;50.33;;
5465;SDS011;2755;50.728;7.108;2023-11-22T03:16:28;128.07;;;50.10;;
5465;SDS011;2755;50.728;7.108;2023-11-22T03:18:54;127.80;;;49.67;;
5465;SDS011;2755;50.728;7.108;2023-11-22T03:21:23;127.00;;;48.37;;
5465;SDS011;2755;50.728;7.108;2023-11-22T03:23:52;128.23;;;50.97;;
5465;SDS011;2755;50.728;7.108;2023-11-22T03:26:18;129.17;;;51.87;;
5465;SDS011;2755;50.728;7.108;2023-11-22T03:28:44;128.60;;;51.70;;
5465;SDS011;2755;50.728;7.108;2023-11-22T03:31:10;124.70;;;44.87;;
5465;SDS011;2755;50.728;7.108;2023-11-22T03:33:36;128.77;;;50.53;;
5465;SDS011;2755;50.728;7.108;2023-11-22T03:36:03;127.13;;;49.07;;
5465;SDS011;2755;50.728;7.108;2023-11-22T03:38:30;128.57;;;50.17;;
5465;SDS011;2755;50.728;7.108;2023-11-22T03:40:56;127.17;;;49.00;;
5465;SDS011;2755;50.728;7.108;2023-11-22T03:43:22;129.40;;;51.10;;
5465;SDS011;2755;50.728;7.108;2023-11-22T03:45:47;127.37;;;46.37;;
5465;SDS011;2755;50.728;7.108;2023-11-22T03:48:13;127.60;;;49.70;;
5465;SDS011;2755;50.728;7.108;2023-11-22T03:50:39;127.40;;;48.43;;
5465;SDS011;2755;50.728;7.108;2023-11-22T03:53:05;129.27;;;52.10;;
5465;SDS011;2755;50.728;7.108;2023-11-22T03:55:32;129.00;;;52.27;;
5465;SDS011;2755;50.728;7.108;2023-11-22T03:57:58;124.87;;;45.60;;
5465;SDS011;2755;50.728;7.108;2023-11-22T04:00:24;128.87;;;51.27;;
5465;SDS011;2755;50.728;7.108;2023-11-22T04:02:50;127.97;;;49.70;;
5465;SDS011;2755;50.728;7.108;2023-11-22T04:05:15;127.97;;;50.17;;
5465;SDS011;2755;50.728;7.108;2023-11-22T04:07:42;126.27;;;47.67;;
5465;SDS011;2755;50.728;7.108;2023-11-22T04:10:08;129.47;;;51.77;;
5465;SDS011;2755;50.728;7.108;2023-11-22T04:12:33;124.20;;;44.40;;
5465;SDS011;2755;50.728;7.108;2023-11-22T04:15:00;128.30;;;49.90;;
5465;SDS011;2755;50.728;7.108;2023-11-22T04:17:25;128.87;;;52.03;;
5465;SDS011;2755;50.728;7.108;2023-11-22T04:19:51;129.60;;;52.07;;
5465;SDS011;2755;50.728;7.108;2023-11-22T04:22:17;129.67;;;52.77;;
5465;SDS011;2755;50.728;7.108;2023-11-22T04:24:43;128.33;;;50.67;;
5465;SDS011;2755;50.728;7.108;2023-11-22T04:27:10;130.13;;;53.37;;
5465;SDS011;2755;50.728;7.108;2023-11-22T04:29:36;131.90;;;56.37;;
5465;SDS011;2755;50.728;7.108;2023-11-22T04:32:02;129.53;;;52.80;;
5465;SDS011;2755;50.728;7.108;2023-11-22T04:34:28;128.33;;;51.40;;
5465;SDS011;2755;50.728;7.108;2023-11-22T04:36:54;128.23;;;49.90;;
5465;SDS011;2755;50.728;7.108;2023-11-22T04:39:21;129.13;;;52.40;;
5465;SDS011;2755;50.728;7.108;2023-11-22T04:41:47;125.57;;;48.10;;
5465;SDS011;2755;50.728;7.108;2023-11-22T04:44:13;126.50;;;46.40;;
5465;SDS011;2755;50.728;7.108;2023-11-22T04:46:39;125.47;;;45.87;;
5465;SDS011;2755;50.728;7.108;2023-11-22T04:49:05;124.97;;;45.57;;
5465;SDS011;2755;50.728;7.108;2023-11-22T04:51:32;126.57;;;46.93;;
5465;SDS011;2755;50.728;7.108;2023-11-22T04:53:59;123.80;;;43.87;;
5465;SDS011;2755;50.728;7.108;2023-11-22T04:56:25;124.07;;;43.60;;
5465;SDS011;2755;50.728;7.108;2023-11-22T04:58:51;124.00;;;42.37;;
5465;SDS011;2755;50.728;7.108;2023-11-22T05:01:17;125.57;;;46.40;;
5465;SDS011;2755;50.728;7.108;2023-11-22T05:03:44;124.50;;;44.03;;
5465;SDS011;2755;50.728;7.108;2023-11-22T05:06:10;122.37;;;41.30;;
5465;SDS011;2755;50.728;7.108;2023-11-22T05:08:35;122.87;;;40.70;;
5465;SDS011;2755;50.728;7.108;2023-11-22T05:11:01;125.97;;;46.47;;
5465;SDS011;2755;50.728;7.108;2023-11-22T05:13:27;129.10;;;48.10;;
5465;SDS011;2755;50.728;7.108;2023-11-22T05:15:54;123.67;;;42.60;;
5465;SDS011;2755;50.728;7.108;2023-11-22T05:18:20;122.40;;;40.60;;
5465;SDS011;2755;50.728;7.108;2023-11-22T05:20:46;123.50;;;41.47;;
5465;SDS011;2755;50.728;7.108;2023-11-22T05:23:13;125.77;;;46.27;;
5465;SDS011;2755;50.728;7.108;2023-11-22T05:25:39;124.03;;;42.50;;
5465;SDS011;2755;50.728;7.108;2023-11-22T05:28:04;121.87;;;39.80;;
5465;SDS011;2755;50.728;7.108;2023-11-22T05:30:30;125.33;;;44.80;;
5465;SDS011;2755;50.728;7.108;2023-11-22T05:32:56;129.23;;;51.10;;
5465;SDS011;2755;50.728;7.108;2023-11-22T05:35:22;123.97;;;42.47;;
5465;SDS011;2755;50.728;7.108;2023-11-22T05:37:48;127.00;;;47.97;;
5465;SDS011;2755;50.728;7.108;2023-11-22T05:40:13;124.90;;;43.87;;
5465;SDS011;2755;50.728;7.108;2023-11-22T05:42:40;123.97;;;42.30;;
5465;SDS011;2755;50.728;7.108;2023-11-22T05:45:07;127.97;;;48.07;;
5465;SDS011;2755;50.728;7.108;2023-11-22T05:47:33;126.70;;;47.23;;
5465;SDS011;2755;50.728;7.108;2023-11-22T05:49:59;126.10;;;46.47;;
5465;SDS011;2755;50.728;7.108;2023-11-22T05:52:24;127.70;;;48.77;;
5465;SDS011;2755;50.728;7.108;2023-11-22T05:54:50;126.47;;;46.83;;
5465;SDS011;2755;50.728;7.108;2023-11-22T05:57:16;125.87;;;46.17;;
5465;SDS011;2755;50.728;7.108;2023-11-22T05:59:44;121.57;;;39.47;;
5465;SDS011;2755;50.728;7.108;2023-11-22T06:02:11;122.77;;;42.47;;
5465;SDS011;2755;50.728;7.108;2023-11-22T06:04:37;123.43;;;42.00;;
5465;SDS011;2755;50.728;7.108;2023-11-22T06:07:03;122.40;;;40.67;;
5465;SDS011;2755;50.728;7.108;2023-11-22T06:09:30;122.73;;;41.63;;
5465;SDS011;2755;50.728;7.108;2023-11-22T06:11:55;126.47;;;46.43;;
5465;SDS011;2755;50.728;7.108;2023-11-22T06:14:21;124.00;;;43.90;;
5465;SDS011;2755;50.728;7.108;2023-11-22T06:16:46;122.07;;;39.67;;
5465;SDS011;2755;50.728;7.108;2023-11-22T06:19:12;122.23;;;42.33;;
5465;SDS011;2755;50.728;7.108;2023-11-22T06:21:38;121.50;;;40.17;;
5465;SDS011;2755;50.728;7.108;2023-11-22T06:24:04;123.57;;;43.30;;
5465;SDS011;2755;50.728;7.108;2023-11-22T06:26:33;119.77;;;37.67;;
5465;SDS011;2755;50.728;7.108;2023-11-22T06:28:59;122.47;;;42.20;;
5465;SDS011;2755;50.728;7.108;2023-11-22T06:31:25;122.87;;;42.30;;
5465;SDS011;2755;50.728;7.108;2023-11-22T06:33:51;121.57;;;40.10;;
5465;SDS011;2755;50.728;7.108;2023-11-22T06:36:17;120.57;;;37.97;;
5465;SDS011;2755;50.728;7.108;2023-11-22T06:38:43;120.90;;;39.40;;
5465;SDS011;2755;50.728;7.108;2023-11-22T06:41:10;123.17;;;38.57;;
5465;SDS011;2755;50.728;7.108;2023-11-22T06:43:36;121.00;;;38.97;;
5465;SDS011;2755;50.728;7.108;2023-11-22T06:46:02;120.80;;;37.70;;
5465;SDS011;2755;50.728;7.108;2023-11-22T06:48:31;120.67;;;39.70;;
5465;SDS011;2755;50.728;7.108;2023-11-22T06:50:57;116.87;;;32.80;;
5465;SDS011;2755;50.728;7.108;2023-11-22T06:53:23;118.67;;;34.83;;
5465;SDS011;2755;50.728;7.108;2023-11-22T06:55:50;119.97;;;38.00;;
5465;SDS011;2755;50.728;7.108;2023-11-22T06:58:16;119.97;;;37.17;;
5465;SDS011;2755;50.728;7.108;2023-11-22T07:00:43;118.07;;;34.53;;
5465;SDS011;2755;50.728;7.108;2023-11-22T07:03:09;118.40;;;35.23;;
5465;SDS011;2755;50.728;7.108;2023-11-22T07:05:35;121.23;;;37.80;;
5465;SDS011;2755;50.728;7.108;2023-11-22T07:08:02;120.00;;;37.63;;
5465;SDS011;2755;50.728;7.108;2023-11-22T07:10:29;119.30;;;37.50;;
5465;SDS011;2755;50.728;7.108;2023-11-22T07:12:59;120.10;;;37.70;;
5465;SDS011;2755;50.728;7.108;2023-11-22T07:15:26;118.97;;;35.83;;
5465;SDS011;2755;50.728;7.108;2023-11-22T07:17:52;121.13;;;39.57;;
5465;SDS011;2755;50.728;7.108;2023-11-22T07:20:19;121.07;;;39.40;;
5465;SDS011;2755;50.728;7.108;2023-11-22T07:22:45;121.20;;;38.47;;
5465;SDS011;2755;50.728;7.108;2023-11-22T07:25:11;120.27;;;38.07;;
5465;SDS011;2755;50.728;7.108;2023-11-22T07:27:46;121.27;;;38.27;;
5465;SDS011;2755;50.728;7.108;2023-11-22T07:30:15;118.80;;;35.80;;
5465;SDS011;2755;50.728;7.108;2023-11-22T07:32:41;120.63;;;38.83;;
5465;SDS011;2755;50.728;7.108;2023-11-22T07:35:07;120.37;;;38.17;;
5465;SDS011;2755;50.728;7.108;2023-11-22T07:37:34;119.50;;;37.00;;
5465;SDS011;2755;50.728;7.108;2023-11-22T07:40:01;120.37;;;38.00;;
5465;SDS011;2755;50.728;7.108;2023-11-22T07:42:28;122.60;;;41.30;;
5465;SDS011;2755;50.728;7.108;2023-11-22T07:44:54;119.50;;;37.87;;
5465;SDS011;2755;50.728;7.108;2023-11-22T07:47:21;120.27;;;38.27;;
5465;SDS011;2755;50.728;7.108;2023-11-22T07:49:49;120.53;;;38.97;;
5465;SDS011;2755;50.728;7.108;2023-11-22T07:52:15;122.17;;;41.73;;
5465;SDS011;2755;50.728;7.108;2023-11-22T07:54:40;122.20;;;41.37;;
5465;SDS011;2755;50.728;7.108;2023-11-22T07:57:06;123.03;;;42.83;;
5465;SDS011;2755;50.728;7.108;2023-11-22T07:59:32;120.37;;;38.03;;
5465;SDS011;2755;50.728;7.108;2023-11-22T08:01:58;123.90;;;43.60;;
5465;SDS011;2755;50.728;7.108;2023-11-22T08:04:26;121.20;;;37.90;;
5465;SDS011;2755;50.728;7.108;2023-11-22T08:06:53;122.20;;;39.97;;
5465;SDS011;2755;50.728;7.108;2023-11-22T08:09:22;124.07;;;42.93;;
5465;SDS011;2755;50.728;7.108;2023-11-22T08:11:48;122.30;;;40.87;;
5465;SDS011;2755;50.728;7.108;2023-11-22T08:14:15;124.87;;;46.33;;
5465;SDS011;2755;50.728;7.108;2023-11-22T08:16:40;126.47;;;48.43;;
5465;SDS011;2755;50.728;7.108;2023-11-22T08:19:08;127.63;;;50.17;;
5465;SDS011;2755;50.728;7.108;2023-11-22T08:21:34;130.00;;;53.50;;
5465;SDS011;2755;50.728;7.108;2023-11-22T08:23:59;124.70;;;44.40;;
5465;SDS011;2755;50.728;7.108;2023-11-22T08:26:25;124.17;;;43.50;;
5465;SDS011;2755;50.728;7.108;2023-11-22T08:28:51;122.87;;;42.10;;
5465;SDS011;2755;50.728;7.108;2023-11-22T08:31:16;122.30;;;40.37;;
5465;SDS011;2755;50.728;7.108;2023-11-22T08:33:42;122.33;;;41.87;;
5465;SDS011;2755;50.728;7.108;2023-11-22T08:36:08;122.07;;;40.80;;
5465;SDS011;2755;50.728;7.108;2023-11-22T08:38:37;120.33;;;37.90;;
5465;SDS011;2755;50.728;7.108;2023-11-22T08:41:06;121.40;;;40.20;;
5465;SDS011;2755;50.728;7.108;2023-11-22T08:43:32;122.33;;;41.47;;
5465;SDS011;2755;50.728;7.108;2023-11-22T08:45:59;120.47;;;38.63;;
5465;SDS011;2755;50.728;7.108;2023-11-22T08:48:25;120.83;;;39.90;;
5465;SDS011;2755;50.728;7.108;2023-11-22T08:50:51;123.07;;;44.07;;
5465;SDS011;2755;50.728;7.108;2023-11-22T08:53:18;120.47;;;39.40;;
5465;SDS011;2755;50.728;7.108;2023-11-22T08:55:45;121.20;;;40.67;;
5465;SDS011;2755;50.728;7.108;2023-11-22T08:58:12;121.40;;;40.03;;
5465;SDS011;2755;50.728;7.108;2023-11-22T09:00:38;119.77;;;38.57;;
5465;SDS011;2755;50.728;7.108;2023-11-22T09:03:06;120.53;;;38.90;;
5465;SDS011;2755;50.728;7.108;2023-11-22T09:05:37;121.77;;;42.17;;
5465;SDS011;2755;50.728;7.108;2023-11-22T09:08:07;123.93;;;45.53;;
5465;SDS011;2755;50.728;7.108;2023-11-22T09:10:38;125.40;;;48.97;;
5465;SDS011;2755;50.728;7.108;2023-11-22T09:13:04;124.90;;;46.20;;
5465;SDS011;2755;50.728;7.108;2023-11-22T09:15:30;124.43;;;44.47;;
5465;SDS011;2755;50.728;7.108;2023-11-22T09:17:58;131.37;;;57.13;;
5465;SDS011;2755;50.728;7.108;2023-11-22T09:20:24;126.77;;;49.73;;
5465;SDS011;2755;50.728;7.108;2023-11-22T09:22:50;124.00;;;44.17;;
5465;SDS011;2755;50.728;7.108;2023-11-22T09:25:27;128.67;;;52.27;;
5465;SDS011;2755;50.728;7.108;2023-11-22T09:27:53;129.83;;;53.60;;
5465;SDS011;2755;50.728;7.108;2023-11-22T09:30:24;137.27;;;66.60;;
5465;SDS011;2755;50.728;7.108;2023-11-22T09:33:07;144.27;;;78.67;;
5465;SDS011;2755;50.728;7.108;2023-11-22T09:35:34;144.37;;;78.87;;
5465;SDS011;2755;50.728;7.108;2023-11-22T09:38:01;141.70;;;72.80;;
5465;SDS011;2755;50.728;7.108;2023-11-22T09:40:28;140.53;;;69.37;;
5465;SDS011;2755;50.728;7.108;2023-11-22T09:42:56;138.53;;;67.83;;
5465;SDS011;2755;50.728;7.108;2023-11-22T09:45:27;136.53;;;63.97;;
5465;SDS011;2755;50.728;7.108;2023-11-22T09:47:54;139.27;;;68.43;;
5465;SDS011;2755;50.728;7.108;2023-11-22T09:50:23;142.87;;;74.67;;
5465;SDS011;2755;50.728;7.108;2023-11-22T09:52:59;136.80;;;63.13;;
5465;SDS011;2755;50.728;7.108;2023-11-22T09:55:27;138.90;;;65.97;;
5465;SDS011;2755;50.728;7.108;2023-11-22T09:57:54;139.23;;;65.20;;
5465;SDS011;2755;50.728;7.108;2023-11-22T10:00:23;136.40;;;61.40;;
5465;SDS011;2755;50.728;7.108;2023-11-22T10:02:52;140.47;;;70.57;;
5465;SDS011;2755;50.728;7.108;2023-11-22T10:05:18;140.40;;;68.13;;
5465;SDS011;2755;50.728;7.108;2023-11-22T10:07:45;139.60;;;67.77;;
5465;SDS011;2755;50.728;7.108;2023-11-22T10:10:13;137.67;;;63.90;;
5465;SDS011;2755;50.728;7.108;2023-11-22T10:12:40;136.20;;;61.67;;
5465;SDS011;2755;50.728;7.108;2023-11-22T10:15:14;133.00;;;56.70;;
5465;SDS011;2755;50.728;7.108;2023-11-22T10:17:41;130.20;;;52.37;;
5465;SDS011;2755;50.728;7.108;2023-11-22T10:20:21;129.37;;;52.03;;
5465;SDS011;2755;50.728;7.108;2023-11-22T10:22:48;130.30;;;53.07;;
5465;SDS011;2755;50.728;7.108;2023-11-22T10:25:15;128.43;;;51.67;;
5465;SDS011;2755;50.728;7.108;2023-11-22T10:27:43;128.53;;;50.53;;
5465;SDS011;2755;50.728;7.108;2023-11-22T10:30:10;130.57;;;55.00;;
5465;SDS011;2755;50.728;7.108;2023-11-22T10:32:37;132.00;;;56.67;;
5465;SDS011;2755;50.728;7.108;2023-11-22T10:35:04;130.23;;;53.97;;
5465;SDS011;2755;50.728;7.108;2023-11-22T10:37:31;126.37;;;47.87;;
5465;SDS011;2755;50.728;7.108;2023-11-22T10:39:57;129.67;;;53.60;;
5465;SDS011;2755;50.728;7.108;2023-11-22T10:42:23;129.90;;;54.67;;
5465;SDS011;2755;50.728;7.108;2023-11-22T10:44:51;132.47;;;58.17;;
5465;SDS011;2755;50.728;7.108;2023-11-22T10:47:26;129.10;;;52.33;;
5465;SDS011;2755;50.728;7.108;2023-11-22T10:49:54;129.90;;;53.07;;
5465;SDS011;2755;50.728;7.108;2023-11-22T10:52:21;131.77;;;56.37;;
5465;SDS011;2755;50.728;7.108;2023-11-22T10:54:52;129.97;;;53.87;;
5465;SDS011;2755;50.728;7.108;2023-11-22T10:57:24;129.13;;;50.93;;
5465;SDS011;2755;50.728;7.108;2023-11-22T10:59:54;130.20;;;54.70;;
5465;SDS011;2755;50.728;7.108;2023-11-22T11:02:21;132.20;;;57.23;;
5465;SDS011;2755;50.728;7.108;2023-11-22T11:04:51;129.07;;;51.60;;
5465;SDS011;2755;50.728;7.108;2023-11-22T11:07:23;130.57;;;54.60;;
5465;SDS011;2755;50.728;7.108;2023-11-22T11:09:53;127.73;;;51.27;;
5465;SDS011;2755;50.728;7.108;2023-11-22T11:12:22;126.43;;;50.20;;
5465;SDS011;2755;50.728;7.108;2023-11-22T11:14:49;125.77;;;47.10;;
5465;SDS011;2755;50.728;7.108;2023-11-22T11:17:15;127.20;;;51.97;;
5465;SDS011;2755;50.728;7.108;2023-11-22T11:19:41;127.40;;;50.63;;
5465;SDS011;2755;50.728;7.108;2023-11-22T11:22:08;125.93;;;47.13;;
5465;SDS011;2755;50.728;7.108;2023-11-22T11:24:38;127.20;;;49.40;;
5465;SDS011;2755;50.728;7.108;2023-11-22T11:27:06;129.00;;;52.57;;
5465;SDS011;2755;50.728;7.108;2023-11-22T11:29:32;128.97;;;52.50;;
5465;SDS011;2755;50.728;7.108;2023-11-22T11:32:02;127.57;;;51.17;;
5465;SDS011;2755;50.728;7.108;2023-11-22T11:34:28;130.10;;;53.37;;
5465;SDS011;2755;50.728;7.108;2023-11-22T11:36:54;130.07;;;54.90;;
5465;SDS011;2755;50.728;7.108;2023-11-22T11:39:27;128.47;;;53.50;;
5465;SDS011;2755;50.728;7.108;2023-11-22T11:42:11;124.00;;;44.97;;
5465;SDS011;2755;50.728;7.108;2023-11-22T11:44:50;127.00;;;50.17;;
5465;SDS011;2755;50.728;7.108;2023-11-22T11:47:27;125.90;;;47.40;;
5465;SDS011;2755;50.728;7.108;2023-11-22T11:49:54;126.57;;;48.20;;
5465;SDS011;2755;50.728;7.108;2023-11-22T11:52:21;127.67;;;50.10;;
5465;SDS011;2755;50.728;7.108;2023-11-22T11:54:48;127.33;;;49.00;;
5465;SDS011;2755;50.728;7.108;2023-11-22T11:57:14;125.30;;;45.23;;
5465;SDS011;2755;50.728;7.108;2023-11-22T11:59:40;125.47;;;46.47;;
5465;SDS011;2755;50.728;7.108;2023-11-22T12:02:06;125.37;;;46.07;;
5465;SDS011;2755;50.728;7.108;2023-11-22T12:04:32;125.67;;;47.27;;
5465;SDS011;2755;50.728;7.108;2023-11-22T12:06:58;125.50;;;44.97;;
5465;SDS011;2755;50.728;7.108;2023-11-22T12:09:25;125.70;;;46.17;;
5465;SDS011;2755;50.728;7.108;2023-11-22T12:11:51;125.37;;;45.67;;
5465;SDS011;2755;50.728;7.108;2023-11-22T12:14:20;127.17;;;49.37;;
5465;SDS011;2755;50.728;7.108;2023-11-22T12:16:46;125.30;;;46.57;;
5465;SDS011;2755;50.728;7.108;2023-11-22T12:19:20;126.03;;;46.80;;
5465;SDS011;2755;50.728;7.108;2023-11-22T12:21:51;126.50;;;47.40;;
5465;SDS011;2755;50.728;7.108;2023-11-22T12:24:18;125.63;;;46.80;;
5465;SDS011;2755;50.728;7.108;2023-11-22T12:26:47;126.93;;;49.60;;
5465;SDS011;2755;50.728;7.108;2023-11-22T12:29:16;125.07;;;46.83;;
5465;SDS011;2755;50.728;7.108;2023-11-22T12:31:46;125.63;;;48.27;;
5465;SDS011;2755;50.728;7.108;2023-11-22T12:34:15;126.87;;;49.17;;
5465;SDS011;2755;50.728;7.108;2023-11-22T12:36:42;127.00;;;49.40;;
5465;SDS011;2755;50.728;7.108;2023-11-22T12:39:09;125.50;;;47.50;;
5465;SDS011;2755;50.728;7.108;2023-11-22T12:41:42;125.67;;;46.60;;
5465;SDS011;2755;50.728;7.108;2023-11-22T12:44:12;125.20;;;45.57;;
5465;SDS011;2755;50.728;7.108;2023-11-22T12:49:15;121.97;;;40.40;;
5465;SDS011;2755;50.728;7.108;2023-11-22T12:51:49;121.77;;;41.63;;
5465;SDS011;2755;50.728;7.108;2023-11-22T12:54:16;121.87;;;41.57;;
5465;SDS011;2755;50.728;7.108;2023-11-22T12:56:45;119.90;;;38.90;;
5465;SDS011;2755;50.728;7.108;2023-11-22T12:59:10;120.57;;;38.37;;
5465;SDS011;2755;50.728;7.108;2023-11-22T13:01:37;121.67;;;40.73;;
5465;SDS011;2755;50.728;7.108;2023-11-22T13:04:03;117.80;;;35.40;;
5465;SDS011;2755;50.728;7.108;2023-11-22T13:06:29;119.97;;;38.57;;
5465;SDS011;2755;50.728;7.108;2023-11-22T13:08:54;120.30;;;38.47;;
5465;SDS011;2755;50.728;7.108;2023-11-22T13:11:21;119.13;;;37.07;;
5465;SDS011;2755;50.728;7.108;2023-11-22T13:13:47;118.00;;;34.40;;
5465;SDS011;2755;50.728;7.108;2023-11-22T13:16:12;119.33;;;37.63;;
5465;SDS011;2755;50.728;7.108;2023-11-22T13:18:41;117.77;;;34.67;;
5465;SDS011;2755;50.728;7.108;2023-11-22T13:21:07;119.07;;;37.53;;
5465;SDS011;2755;50.728;7.108;2023-11-22T13:23:33;119.80;;;38.10;;
5465;SDS011;2755;50.728;7.108;2023-11-22T13:25:59;118.17;;;35.93;;
5465;SDS011;2755;50.728;7.108;2023-11-22T13:28:24;118.70;;;37.20;;
5465;SDS011;2755;50.728;7.108;2023-11-22T13:30:51;116.50;;;34.80;;
5465;SDS011;2755;50.728;7.108;2023-11-22T13:33:17;118.70;;;36.17;;
5465;SDS011;2755;50.728;7.108;2023-11-22T13:35:43;118.83;;;36.60;;
5465;SDS011;2755;50.728;7.108;2023-11-22T13:38:11;117.57;;;35.67;;
5465;SDS011;2755;50.728;7.108;2023-11-22T13:40:37;116.60;;;32.50;;
5465;SDS011;2755;50.728;7.108;2023-11-22T13:43:06;115.40;;;32.63;;
5465;SDS011;2755;50.728;7.108;2023-11-22T13:45:35;118.47;;;36.10;;
5465;SDS011;2755;50.728;7.108;2023-11-22T13:48:03;118.80;;;36.40;;
5465;SDS011;2755;50.728;7.108;2023-11-22T13:50:31;116.17;;;32.80;;
5465;SDS011;2755;50.728;7.108;2023-11-22T13:52:57;117.33;;;34.37;;
5465;SDS011;2755;50.728;7.108;2023-11-22T13:55:24;118.37;;;35.57;;
5465;SDS011;2755;50.728;7.108;2023-11-22T13:57:50;118.17;;;35.77;;
5465;SDS011;2755;50.728;7.108;2023-11-22T14:00:18;116.47;;;32.50;;
5465;SDS011;2755;50.728;7.108;2023-11-22T14:02:49;117.47;;;35.30;;
5465;SDS011;2755;50.728;7.108;2023-11-22T14:05:18;115.63;;;32.47;;
5465;SDS011;2755;50.728;7.108;2023-11-22T14:07:44;115.67;;;33.23;;
5465;SDS011;2755;50.728;7.108;2023-11-22T14:10:10;114.97;;;30.93;;
5465;SDS011;2755;50.728;7.108;2023-11-22T14:12:36;115.37;;;32.77;;
5465;SDS011;2755;50.728;7.108;2023-11-22T14:15:03;118.27;;;37.27;;
5465;SDS011;2755;50.728;7.108;2023-11-22T14:17:31;117.57;;;34.27;;
5465;SDS011;2755;50.728;7.108;2023-11-22T14:19:57;118.57;;;36.00;;
5465;SDS011;2755;50.728;7.108;2023-11-22T14:22:23;119.67;;;38.37;;
5465;SDS011;2755;50.728;7.108;2023-11-22T14:24:49;117.20;;;35.70;;
5465;SDS011;2755;50.728;7.108;2023-11-22T14:27:18;118.67;;;37.33;;
5465;SDS011;2755;50.728;7.108;2023-11-22T14:29:44;118.87;;;36.63;;
5465;SDS011;2755;50.728;7.108;2023-11-22T14:32:13;118.30;;;35.60;;
5465;SDS011;2755;50.728;7.108;2023-11-22T14:34:39;117.07;;;34.40;;